createdAt,value
2019-02-12T00:02:28.543Z,13.60
2019-02-12T00:04:57.357Z,10.87
2019-02-12T00:07:26.219Z,13.63
2019-02-12T00:09:55.167Z,15.37
2019-02-12T00:12:24.187Z,13.90
2019-02-12T00:14:53.159Z,10.10
2019-02-12T00:17:22.108Z,12.93
2019-02-12T00:19:50.958Z,11.43
2019-02-12T00:22:19.873Z,17.53
2019-02-12T00:24:48.872Z,15.17
2019-02-12T00:27:17.807Z,13.80
2019-02-12T00:29:46.697Z,20.77
2019-02-12T00:32:15.631Z,14.83
2019-02-12T00:34:44.600Z,18.47
2019-02-12T00:37:13.559Z,19.10
2019-02-12T00:39:42.472Z,19.70
2019-02-12T00:42:11.535Z,17.67
2019-02-12T00:44:40.501Z,21.27
2019-02-12T00:47:09.432Z,16.77
2019-02-12T00:49:38.439Z,16.67
2019-02-12T00:52:07.388Z,16.13
2019-02-12T00:54:36.378Z,20.47
2019-02-12T00:57:05.386Z,13.10
2019-02-12T00:59:34.384Z,12.50
2019-02-12T01:02:03.255Z,17.00
2019-02-12T01:04:32.075Z,21.20
2019-02-12T01:07:01.015Z,19.90
2019-02-12T01:09:29.924Z,21.33
2019-02-12T01:11:58.838Z,19.80
2019-02-12T01:14:27.775Z,16.73
2019-02-12T01:16:56.736Z,14.37
2019-02-12T01:19:25.646Z,23.83
2019-02-12T01:21:54.549Z,17.03
2019-02-12T01:24:23.439Z,24.03
2019-02-12T01:26:52.372Z,21.03
2019-02-12T01:29:21.291Z,23.57
2019-02-12T01:31:50.309Z,17.50
2019-02-12T01:34:19.279Z,19.40
2019-02-12T01:36:48.192Z,16.57
2019-02-12T01:39:17.020Z,25.10
2019-02-12T01:41:45.911Z,27.23
2019-02-12T01:44:14.827Z,18.13
2019-02-12T01:46:43.789Z,20.43
2019-02-12T01:49:12.700Z,24.13
2019-02-12T01:51:41.613Z,16.23
2019-02-12T01:54:10.593Z,20.00
2019-02-12T01:56:39.404Z,14.80
2019-02-12T01:59:08.283Z,20.87
2019-02-12T02:01:37.186Z,17.77
2019-02-12T02:04:06.160Z,18.83
2019-02-12T02:06:35.043Z,19.73
2019-02-12T02:09:05.339Z,23.97
2019-02-12T02:11:34.319Z,16.73
2019-02-12T02:14:03.269Z,17.13
2019-02-12T02:16:32.171Z,22.30
2019-02-12T02:19:01.000Z,13.60
2019-02-12T02:21:29.827Z,24.73
2019-02-12T02:23:58.783Z,19.03
2019-02-12T02:26:27.731Z,19.20
2019-02-12T02:28:56.603Z,16.77
2019-02-12T02:31:25.468Z,18.93
2019-02-12T02:33:54.407Z,18.63
2019-02-12T02:36:23.218Z,15.30
2019-02-12T02:38:52.049Z,18.30
2019-02-12T02:41:20.880Z,28.27
2019-02-12T02:43:49.795Z,13.53
2019-02-12T02:46:18.765Z,18.23
2019-02-12T02:48:47.797Z,23.57
2019-02-12T02:51:16.606Z,20.40
2019-02-12T02:53:45.455Z,14.97
2019-02-12T02:56:14.339Z,16.57
2019-02-12T02:58:43.163Z,20.87
2019-02-12T03:01:12.052Z,22.17
2019-02-12T03:03:40.955Z,11.50
2019-02-12T03:06:09.843Z,13.40
2019-02-12T03:08:38.820Z,18.13
2019-02-12T03:11:07.715Z,23.40
2019-02-12T03:13:36.523Z,18.27
2019-02-12T03:16:05.491Z,24.73
2019-02-12T03:18:34.392Z,14.47
2019-02-12T03:21:03.359Z,30.43
2019-02-12T03:23:32.179Z,19.33
2019-02-12T03:26:01.111Z,24.90
2019-02-12T03:28:30.045Z,20.07
2019-02-12T03:30:59.043Z,19.77
2019-02-12T03:33:27.960Z,14.90
2019-02-12T03:35:57.027Z,21.73
2019-02-12T03:38:25.931Z,27.13
2019-02-12T03:40:54.779Z,26.40
2019-02-12T03:43:23.779Z,26.10
2019-02-12T03:45:52.597Z,17.40
2019-02-12T03:48:21.503Z,26.17
2019-02-12T03:50:50.340Z,20.77
2019-02-12T03:53:19.183Z,16.57
2019-02-12T03:55:48.186Z,29.93
2019-02-12T03:58:17.161Z,22.83
2019-02-12T04:00:46.044Z,25.67
2019-02-12T04:03:15.163Z,25.93
2019-02-12T04:05:44.067Z,33.47
2019-02-12T04:08:12.930Z,24.43
2019-02-12T04:10:41.926Z,19.20
2019-02-12T04:13:10.813Z,24.17
2019-02-12T04:15:39.806Z,20.07
2019-02-12T04:18:08.798Z,21.37
2019-02-12T04:20:37.778Z,33.73
2019-02-12T04:23:06.604Z,28.50
2019-02-12T04:25:35.579Z,23.77
2019-02-12T04:28:04.475Z,30.93
2019-02-12T04:30:33.307Z,28.20
2019-02-12T04:33:02.365Z,25.10
2019-02-12T04:35:31.392Z,25.93
2019-02-12T04:38:00.356Z,21.37
2019-02-12T04:40:29.372Z,26.63
2019-02-12T04:42:58.364Z,19.77
2019-02-12T04:45:27.450Z,29.17
2019-02-12T04:47:56.400Z,26.60
2019-02-12T04:50:25.437Z,31.47
2019-02-12T04:52:54.668Z,26.13
2019-02-12T04:55:23.721Z,26.57
2019-02-12T04:57:52.660Z,22.87
2019-02-12T05:00:21.690Z,26.20
2019-02-12T05:02:50.705Z,28.23
2019-02-12T05:05:19.744Z,26.63
2019-02-12T05:07:48.796Z,34.27
2019-02-12T05:10:18.612Z,31.80
2019-02-12T05:12:47.563Z,32.37
2019-02-12T05:15:16.614Z,38.90
2019-02-12T05:17:45.646Z,26.17
2019-02-12T05:20:14.648Z,28.00
2019-02-12T05:22:44.051Z,33.97
2019-02-12T05:25:13.948Z,27.30
2019-02-12T05:27:42.906Z,29.03
2019-02-12T05:30:12.032Z,32.47
2019-02-12T05:32:40.911Z,28.23
2019-02-12T05:35:10.208Z,23.40
2019-02-12T05:37:39.180Z,27.17
2019-02-12T05:40:08.773Z,28.47
2019-02-12T05:42:37.737Z,29.77
2019-02-12T05:45:07.996Z,26.47
2019-02-12T05:47:36.969Z,31.23
2019-02-12T05:50:07.665Z,33.10
2019-02-12T05:52:36.591Z,31.33
2019-02-12T05:55:05.651Z,30.00
2019-02-12T05:57:34.641Z,32.60
2019-02-12T06:00:04.367Z,50.17
2019-02-12T06:02:33.361Z,36.37
2019-02-12T06:05:02.496Z,27.03
2019-02-12T06:07:31.373Z,38.03
2019-02-12T06:10:00.376Z,34.50
2019-02-12T06:12:29.453Z,33.93
2019-02-12T06:14:59.886Z,31.40
2019-02-12T06:17:28.939Z,30.17
2019-02-12T06:19:57.904Z,33.43
2019-02-12T06:22:27.073Z,29.07
2019-02-12T06:24:56.352Z,40.98
2019-02-12T06:27:25.267Z,41.73
2019-02-12T06:29:54.458Z,34.73
2019-02-12T06:32:23.422Z,35.50
2019-02-12T06:34:53.746Z,30.70
2019-02-12T06:37:22.780Z,37.20
2019-02-12T06:39:51.768Z,41.37
2019-02-12T06:42:20.729Z,27.70
2019-02-12T06:44:49.668Z,35.10
2019-02-12T06:47:18.515Z,32.23
2019-02-12T06:49:47.375Z,29.67
2019-02-12T06:52:16.252Z,31.50
2019-02-12T06:54:45.136Z,36.17
2019-02-12T06:57:14.061Z,36.53
2019-02-12T06:59:43.061Z,28.43
2019-02-12T07:02:47.733Z,36.77
2019-02-12T07:05:16.764Z,31.70
2019-02-12T07:08:29.770Z,29.40
2019-02-12T07:11:01.585Z,25.43
2019-02-12T07:13:39.034Z,25.90
2019-02-12T07:17:01.005Z,31.50
2019-02-12T07:20:05.705Z,25.20
2019-02-12T07:23:02.772Z,34.77
2019-02-12T07:26:18.969Z,21.43
2019-02-12T07:29:18.828Z,31.20
2019-02-12T07:32:41.053Z,31.87
2019-02-12T07:35:48.764Z,33.37
2019-02-12T07:38:37.726Z,33.60
2019-02-12T07:41:44.612Z,30.83
2019-02-12T07:45:00.768Z,23.77
2019-02-12T07:47:50.578Z,30.30
2019-02-12T07:50:33.633Z,28.37
2019-02-12T07:53:34.038Z,33.20
2019-02-12T07:56:44.248Z,37.97
2019-02-12T07:59:47.650Z,29.53
2019-02-12T08:02:24.828Z,28.27
2019-02-12T08:05:34.422Z,26.87
2019-02-12T08:08:44.029Z,30.53
2019-02-12T08:11:43.981Z,24.87
2019-02-12T08:14:55.945Z,26.23
2019-02-12T08:17:57.100Z,22.33
2019-02-12T08:20:46.056Z,28.47
2019-02-12T08:23:55.804Z,24.67
2019-02-12T08:26:48.759Z,33.53
2019-02-12T08:29:56.108Z,24.90
2019-02-12T08:33:12.204Z,20.80
2019-02-12T08:36:01.643Z,24.83
2019-02-12T08:39:01.935Z,24.37
2019-02-12T08:42:04.540Z,22.00
2019-02-12T08:45:22.696Z,27.30
2019-02-12T08:48:46.623Z,20.40
2019-02-12T08:51:52.599Z,23.93
2019-02-12T08:54:48.997Z,23.93
2019-02-12T08:58:01.171Z,26.13
2019-02-12T09:01:23.617Z,23.70
2019-02-12T09:04:51.878Z,21.13
2019-02-12T09:07:37.995Z,23.33
2019-02-12T09:10:46.800Z,26.30
2019-02-12T09:14:16.756Z,27.13
2019-02-12T09:17:13.882Z,26.90
2019-02-12T09:20:24.560Z,20.63
2019-02-12T09:23:24.420Z,22.33
2019-02-12T09:26:43.798Z,30.10
2019-02-12T09:29:39.400Z,32.43
2019-02-12T09:33:05.031Z,26.23
2019-02-12T09:35:52.005Z,26.27
2019-02-12T09:38:52.848Z,32.13
2019-02-12T09:41:36.647Z,22.30
2019-02-12T09:44:32.233Z,29.73
2019-02-12T09:47:46.469Z,28.87
2019-02-12T09:50:36.948Z,28.47
2019-02-12T09:53:24.548Z,24.57
2019-02-12T09:56:25.830Z,20.97
2019-02-12T09:59:21.720Z,28.03
2019-02-12T10:02:27.075Z,27.70
2019-02-12T10:05:42.999Z,22.00
2019-02-12T10:08:40.640Z,21.80
2019-02-12T10:11:40.551Z,25.27
2019-02-12T10:14:56.359Z,30.83
2019-02-12T10:17:45.725Z,30.30
2019-02-12T10:20:50.310Z,35.87
2019-02-12T10:23:51.206Z,31.60
2019-02-12T10:26:20.725Z,32.30
2019-02-12T10:29:26.755Z,25.77
2019-02-12T10:31:54.400Z,36.93
2019-02-12T10:34:23.445Z,31.90
2019-02-12T10:36:52.380Z,27.90
2019-02-12T10:39:21.448Z,29.07
2019-02-12T10:41:50.499Z,32.77
2019-02-12T10:44:20.379Z,39.07
2019-02-12T10:46:49.454Z,36.70
2019-02-12T10:49:18.494Z,33.67
2019-02-12T10:51:47.547Z,31.57
2019-02-12T10:54:16.617Z,26.47
2019-02-12T10:56:45.647Z,31.70
2019-02-12T10:59:14.639Z,33.37
2019-02-12T11:01:44.198Z,31.93
2019-02-12T11:04:15.474Z,34.30
2019-02-12T11:06:44.448Z,35.67
2019-02-12T11:09:13.415Z,27.00
2019-02-12T11:11:43.852Z,30.37
2019-02-12T11:14:12.906Z,28.80
2019-02-12T11:16:41.935Z,27.67
2019-02-12T11:19:10.991Z,24.83
2019-02-12T11:21:39.998Z,25.37
2019-02-12T11:24:09.081Z,30.20
2019-02-12T11:26:38.143Z,22.43
2019-02-12T11:29:07.257Z,29.03
2019-02-12T11:31:36.349Z,28.03
2019-02-12T11:34:05.489Z,31.77
2019-02-12T11:36:34.443Z,25.43
2019-02-12T11:39:04.471Z,24.70
2019-02-12T11:41:33.414Z,22.73
2019-02-12T11:44:02.478Z,23.43
2019-02-12T11:46:31.335Z,24.43
2019-02-12T11:49:00.407Z,17.37
2019-02-12T11:51:29.380Z,22.30
2019-02-12T11:53:58.394Z,23.20
2019-02-12T11:56:27.513Z,21.50
2019-02-12T11:58:56.612Z,24.93
2019-02-12T12:01:28.676Z,18.03
2019-02-12T12:03:57.747Z,16.33
2019-02-12T12:06:29.358Z,22.57
2019-02-12T12:08:58.340Z,20.93
2019-02-12T12:11:27.312Z,26.33
2019-02-12T12:13:56.349Z,26.00
2019-02-12T12:16:25.373Z,23.03
2019-02-12T12:18:54.319Z,27.97
2019-02-12T12:21:23.366Z,22.00
2019-02-12T12:23:54.877Z,20.50
2019-02-12T12:26:23.733Z,13.63
2019-02-12T12:28:53.099Z,19.10
2019-02-12T12:31:22.016Z,18.87
2019-02-12T12:33:51.017Z,15.67
2019-02-12T12:36:19.994Z,15.13
2019-02-12T12:38:48.921Z,13.40
2019-02-12T12:41:17.875Z,18.90
2019-02-12T12:43:46.916Z,12.00
2019-02-12T12:46:16.098Z,16.33
2019-02-12T12:48:45.105Z,17.03
2019-02-12T12:51:14.004Z,19.67
2019-02-12T12:53:43.060Z,15.73
2019-02-12T12:56:11.989Z,17.27
2019-02-12T12:58:40.949Z,14.63
2019-02-12T13:01:10.012Z,17.30
2019-02-12T13:03:38.952Z,13.10
2019-02-12T13:06:08.065Z,17.50
2019-02-12T13:08:37.054Z,19.17
2019-02-12T13:11:09.052Z,20.73
2019-02-12T13:13:38.438Z,14.97
2019-02-12T13:16:07.386Z,17.73
2019-02-12T13:18:55.412Z,23.57
2019-02-12T13:21:24.357Z,23.90
2019-02-12T13:23:53.274Z,19.07
2019-02-12T13:26:22.227Z,23.50
2019-02-12T13:28:51.052Z,25.80
2019-02-12T13:31:20.823Z,21.33
2019-02-12T13:33:50.128Z,27.00
2019-02-12T13:36:19.063Z,23.17
2019-02-12T13:38:47.967Z,23.23
2019-02-12T13:41:16.912Z,23.33
2019-02-12T13:43:45.808Z,21.00
2019-02-12T13:46:14.823Z,20.67
2019-02-12T13:48:43.727Z,18.73
2019-02-12T13:51:12.764Z,23.60
2019-02-12T13:53:43.404Z,20.13
2019-02-12T13:56:12.388Z,19.23
2019-02-12T13:58:41.495Z,23.97
2019-02-12T14:01:10.530Z,27.27
2019-02-12T14:03:39.529Z,26.87
2019-02-12T14:06:08.692Z,28.63
2019-02-12T14:08:37.727Z,23.03
2019-02-12T14:11:09.775Z,24.47
2019-02-12T14:13:38.706Z,20.27
2019-02-12T14:16:07.633Z,20.60
2019-02-12T14:18:36.639Z,26.73
2019-02-12T14:21:05.651Z,21.77
2019-02-12T14:23:34.683Z,21.20
2019-02-12T14:26:03.603Z,20.33
2019-02-12T14:28:35.319Z,21.47
2019-02-12T14:31:04.316Z,23.30
2019-02-12T14:33:33.316Z,25.57
2019-02-12T14:36:02.240Z,23.67
2019-02-12T14:38:31.167Z,22.30
2019-02-12T14:41:00.115Z,22.00
2019-02-12T14:43:29.067Z,19.90
2019-02-12T14:45:58.052Z,27.03
2019-02-12T14:48:27.031Z,23.53
2019-02-12T14:50:56.031Z,23.80
2019-02-12T14:53:25.027Z,24.50
2019-02-12T14:55:53.982Z,23.40
2019-02-12T14:58:22.839Z,23.00
2019-02-12T15:00:51.759Z,27.40
2019-02-12T15:03:20.716Z,21.57
2019-02-12T15:05:51.199Z,21.70
2019-02-12T15:08:20.066Z,23.17
2019-02-12T15:10:48.967Z,26.53
2019-02-12T15:13:17.979Z,21.40
2019-02-12T15:15:46.897Z,17.07
2019-02-12T15:18:20.337Z,19.10
2019-02-12T15:20:49.256Z,22.90
2019-02-12T15:23:18.239Z,18.13
2019-02-12T15:25:47.232Z,23.30
2019-02-12T15:28:16.922Z,20.10
2019-02-12T15:30:46.002Z,19.27
2019-02-12T15:33:16.186Z,25.60
2019-02-12T15:35:45.233Z,17.97
2019-02-12T15:38:14.328Z,20.67
2019-02-12T15:40:44.952Z,18.63
2019-02-12T15:43:14.007Z,20.80
2019-02-12T15:45:42.952Z,22.33
2019-02-12T15:48:11.951Z,20.23
2019-02-12T15:50:41.031Z,18.63
2019-02-12T15:53:09.871Z,24.87
2019-02-12T15:55:42.266Z,20.73
2019-02-12T15:58:12.443Z,20.50
2019-02-12T16:00:43.461Z,17.67
2019-02-12T16:03:12.503Z,18.47
2019-02-12T16:05:41.544Z,21.33
2019-02-12T16:08:10.503Z,21.30
2019-02-12T16:10:40.184Z,23.97
2019-02-12T16:13:13.567Z,23.27
2019-02-12T16:15:44.663Z,19.60
2019-02-12T16:18:13.097Z,18.83
2019-02-12T16:20:41.995Z,21.97
2019-02-12T16:23:10.933Z,23.33
2019-02-12T16:25:39.964Z,28.77
2019-02-12T16:28:08.820Z,30.83
2019-02-12T16:30:38.039Z,24.40
2019-02-12T16:33:07.043Z,26.77
2019-02-12T16:35:35.936Z,28.33
2019-02-12T16:38:04.968Z,24.13
2019-02-12T16:40:35.069Z,22.63
2019-02-12T16:43:03.967Z,21.77
2019-02-12T16:45:43.368Z,18.97
2019-02-12T16:48:14.143Z,22.37
2019-02-12T16:50:43.131Z,22.37
2019-02-12T16:53:11.989Z,25.77
2019-02-12T16:55:40.896Z,25.20
2019-02-12T16:58:09.890Z,24.40
2019-02-12T17:00:38.784Z,24.87
2019-02-12T17:03:07.876Z,24.17
2019-02-12T17:05:36.783Z,24.40
2019-02-12T17:08:08.752Z,22.40
2019-02-12T17:10:37.724Z,23.03
2019-02-12T17:13:06.644Z,22.90
2019-02-12T17:15:35.545Z,26.00
2019-02-12T17:18:05.091Z,24.00
2019-02-12T17:20:34.085Z,25.27
2019-02-12T17:23:03.063Z,31.97
2019-02-12T17:25:32.004Z,25.70
2019-02-12T17:28:00.912Z,27.67
2019-02-12T17:30:29.933Z,28.27
2019-02-12T17:32:58.832Z,33.43
2019-02-12T17:35:27.744Z,23.97
2019-02-12T17:37:59.794Z,25.33
2019-02-12T17:40:28.623Z,27.83
2019-02-12T17:42:57.475Z,22.17
2019-02-12T17:45:27.531Z,23.47
2019-02-12T17:47:56.531Z,29.87
2019-02-12T17:50:25.552Z,27.05
2019-02-12T17:52:54.452Z,32.90
2019-02-12T17:55:23.384Z,26.87
2019-02-12T17:57:52.209Z,31.27
2019-02-12T18:00:24.057Z,25.67
2019-02-12T18:02:53.087Z,24.13
2019-02-12T18:05:22.150Z,32.23
2019-02-12T18:07:51.059Z,26.90
2019-02-12T18:10:19.896Z,31.40
2019-02-12T18:12:48.744Z,26.73
2019-02-12T18:15:17.719Z,24.90
2019-02-12T18:17:46.703Z,24.57
2019-02-12T18:20:15.972Z,26.90
2019-02-12T18:22:44.948Z,29.03
2019-02-12T18:25:15.563Z,32.20
2019-02-12T18:27:44.448Z,24.90
2019-02-12T18:30:14.424Z,31.30
2019-02-12T18:32:43.404Z,27.10
2019-02-12T18:35:12.316Z,32.05
2019-02-12T18:37:45.064Z,30.20
2019-02-12T18:40:14.068Z,30.77
2019-02-12T18:42:42.595Z,30.27
2019-02-12T18:45:12.419Z,28.10
2019-02-12T18:47:42.178Z,34.67
2019-02-12T18:50:11.076Z,27.60
2019-02-12T18:52:39.576Z,30.07
2019-02-12T18:55:08.520Z,28.43
2019-02-12T18:57:37.028Z,30.37
2019-02-12T19:00:06.111Z,30.20
2019-02-12T19:02:34.680Z,27.67
2019-02-12T19:05:03.327Z,67.37
2019-02-12T19:07:31.926Z,33.43
2019-02-12T19:10:00.431Z,33.83
2019-02-12T19:12:28.837Z,31.23
2019-02-12T19:14:57.408Z,35.67
2019-02-12T19:17:25.892Z,30.87
2019-02-12T19:19:54.466Z,35.00
2019-02-12T19:22:23.073Z,45.40
2019-02-12T19:24:51.528Z,49.90
2019-02-12T19:27:20.057Z,34.90
2019-02-12T19:29:48.599Z,31.50
2019-02-12T19:32:17.056Z,33.37
2019-02-12T19:34:46.756Z,36.10
2019-02-12T19:37:15.338Z,35.00
2019-02-12T19:39:43.807Z,35.03
2019-02-12T19:42:12.398Z,35.17
2019-02-12T19:44:43.628Z,32.67
2019-02-12T19:47:12.095Z,34.87
2019-02-12T19:49:40.560Z,33.40
2019-02-12T19:52:10.806Z,36.63
2019-02-12T19:54:39.300Z,38.30
2019-02-12T19:57:07.798Z,31.63
2019-02-12T19:59:36.287Z,32.67
2019-02-12T20:02:04.872Z,28.73
2019-02-12T20:04:33.407Z,36.43
2019-02-12T20:07:01.843Z,32.83
2019-02-12T20:09:30.272Z,31.50
2019-02-12T20:11:58.732Z,32.20
2019-02-12T20:14:27.251Z,35.87
2019-02-12T20:16:58.211Z,31.97
2019-02-12T20:19:27.196Z,30.37
2019-02-12T20:21:57.451Z,28.70
2019-02-12T20:24:26.135Z,33.87
2019-02-12T20:26:55.887Z,29.87
2019-02-12T20:29:24.367Z,31.73
2019-02-12T20:31:52.885Z,32.97
2019-02-12T20:34:28.645Z,31.53
2019-02-12T20:36:58.966Z,35.80
2019-02-12T20:39:30.167Z,36.67
2019-02-12T20:41:58.695Z,35.47
2019-02-12T20:44:27.219Z,37.73
2019-02-12T20:46:55.806Z,48.17
2019-02-12T20:49:24.252Z,41.27
2019-02-12T20:51:52.767Z,37.73
2019-02-12T20:54:21.287Z,37.30
2019-02-12T20:56:51.883Z,29.43
2019-02-12T20:59:22.499Z,30.97
2019-02-12T21:01:50.994Z,30.10
2019-02-12T21:04:19.659Z,28.70
2019-02-12T21:06:48.155Z,32.20
2019-02-12T21:09:18.385Z,30.57
2019-02-12T21:11:46.870Z,30.60
2019-02-12T21:14:15.311Z,30.63
2019-02-12T21:16:43.813Z,31.13
2019-02-12T21:19:12.420Z,34.37
2019-02-12T21:21:42.428Z,41.67
2019-02-12T21:24:10.961Z,35.70
2019-02-12T21:26:39.419Z,36.03
2019-02-12T21:29:16.828Z,37.90
2019-02-12T21:31:45.264Z,32.43
2019-02-12T21:34:13.689Z,33.53
2019-02-12T21:36:42.209Z,36.77
2019-02-12T21:39:11.548Z,35.07
2019-02-12T21:41:40.006Z,30.97
2019-02-12T21:44:08.438Z,39.80
2019-02-12T21:46:36.943Z,32.30
2019-02-12T21:49:05.448Z,36.83
2019-02-12T21:51:33.907Z,44.10
2019-02-12T21:54:02.410Z,35.53
2019-02-12T21:56:30.917Z,41.47
2019-02-12T21:58:59.482Z,34.77
2019-02-12T22:01:27.895Z,36.93
2019-02-12T22:03:56.388Z,39.97
2019-02-12T22:06:24.831Z,36.13
2019-02-12T22:08:53.244Z,43.77
2019-02-12T22:11:21.665Z,40.10
2019-02-12T22:13:50.101Z,36.60
2019-02-12T22:16:18.531Z,48.80
2019-02-12T22:18:48.497Z,39.97
2019-02-12T22:21:18.595Z,37.07
2019-02-12T22:23:47.088Z,34.60
2019-02-12T22:26:15.564Z,37.27
2019-02-12T22:28:43.997Z,35.37
2019-02-12T22:31:12.491Z,36.13
2019-02-12T22:33:40.916Z,34.23
2019-02-12T22:36:11.663Z,33.60
2019-02-12T22:38:46.795Z,36.90
2019-02-12T22:41:19.479Z,33.40
2019-02-12T22:43:47.915Z,45.33
2019-02-12T22:46:16.441Z,36.50
2019-02-12T22:48:44.863Z,29.43
2019-02-12T22:51:13.347Z,36.60
2019-02-12T22:53:41.899Z,34.07
2019-02-12T22:56:10.315Z,36.53
2019-02-12T22:58:47.713Z,33.00
2019-02-12T23:01:16.200Z,31.57
2019-02-12T23:03:44.687Z,34.20
2019-02-12T23:06:13.215Z,33.60
2019-02-12T23:08:44.688Z,37.67
2019-02-12T23:11:13.239Z,33.23
2019-02-12T23:13:41.723Z,33.13
2019-02-12T23:16:10.239Z,38.80
2019-02-12T23:18:38.663Z,37.80
2019-02-12T23:21:07.161Z,37.57
2019-02-12T23:23:35.651Z,37.73
2019-02-12T23:26:04.135Z,34.33
2019-02-12T23:28:34.647Z,35.13
2019-02-12T23:31:03.188Z,36.40
2019-02-12T23:33:31.692Z,36.60
2019-02-12T23:36:00.488Z,37.90
2019-02-12T23:38:28.876Z,33.70
2019-02-12T23:40:57.367Z,33.50
2019-02-12T23:43:25.850Z,34.83
2019-02-12T23:45:54.330Z,33.10
2019-02-12T23:48:22.767Z,35.63
2019-02-12T23:50:51.415Z,35.27
2019-02-12T23:53:20.159Z,38.47
2019-02-12T23:55:48.575Z,31.60
2019-02-12T23:58:16.995Z,41.40
